Time;durP1;ratioP1;P1;durP2;ratioP2;P2;SDS_P1;SDS_P2;PMS_P1;PMS_P2;Temp;Humidity;BMP_temperature;BMP_pressure;BME280_temperature;BME280_humidity;BME280_pressure;Samples;Min_cycle;Max_cycle;Signal;HPM_P1;HPM_P2
2023/01/28 00:01:49;;;;;;;12.48;8.15;;;2.50;99.90;;;;;;5034365;28;20076;-80
2023/01/28 00:04:15;;;;;;;12.35;7.65;;;2.50;99.90;;;;;;5036740;28;20072;-80
2023/01/28 00:06:41;;;;;;;13.57;8.30;;;2.40;99.90;;;;;;5021386;28;20453;-80
2023/01/28 00:09:07;;;;;;;13.20;8.43;;;2.40;99.90;;;;;;5030428;28;20038;-80
2023/01/28 00:11:32;;;;;;;12.25;8.65;;;2.50;99.90;;;;;;5030580;28;20084;-80
2023/01/28 00:13:59;;;;;;;12.23;8.43;;;2.40;99.90;;;;;;5034348;28;20139;-80
2023/01/28 00:16:26;;;;;;;13.07;8.88;;;2.40;99.90;;;;;;5038372;28;20679;-80
2023/01/28 00:18:52;;;;;;;12.23;8.52;;;2.40;99.90;;;;;;5030152;28;20060;-80
2023/01/28 00:21:18;;;;;;;12.50;8.50;;;2.40;99.90;;;;;;5013312;28;20124;-80
2023/01/28 00:23:50;;;;;;;15.32;9.13;;;2.40;99.90;;;;;;5029743;28;20147;-80
2023/01/28 00:26:16;;;;;;;12.75;8.43;;;2.40;99.90;;;;;;5018485;28;20475;-81
2023/01/28 00:28:42;;;;;;;14.23;10.30;;;2.40;99.90;;;;;;5017932;28;20037;-80
2023/01/28 00:31:23;;;;;;;12.63;9.20;;;2.40;99.90;;;;;;5011636;28;20040;-80
2023/01/28 00:33:49;;;;;;;12.70;9.05;;;2.50;99.90;;;;;;5018257;28;20044;-80
2023/01/28 00:36:16;;;;;;;13.10;9.15;;;2.50;99.90;;;;;;5014481;28;20176;-80
2023/01/28 00:38:42;;;;;;;12.10;8.73;;;2.50;99.90;;;;;;5016506;28;20125;-80
2023/01/28 00:41:15;;;;;;;12.82;8.68;;;2.50;99.90;;;;;;5016729;28;20048;-80
2023/01/28 00:43:42;;;;;;;15.23;9.05;;;2.50;99.90;;;;;;5016945;28;20037;-80
2023/01/28 00:46:10;;;;;;;12.40;8.20;;;2.40;99.90;;;;;;5030212;28;20136;-80
2023/01/28 00:48:37;;;;;;;11.63;7.93;;;2.40;99.90;;;;;;5028957;28;20052;-80
2023/01/28 00:51:03;;;;;;;11.88;8.75;;;2.50;99.90;;;;;;5016303;28;20033;-80
2023/01/28 00:53:30;;;;;;;11.88;8.50;;;2.40;99.90;;;;;;5024655;28;20136;-80
2023/01/28 00:55:56;;;;;;;13.75;8.82;;;2.40;99.90;;;;;;5040374;28;20045;-80
2023/01/28 00:58:23;;;;;;;10.85;7.90;;;2.40;99.90;;;;;;5014792;28;20090;-80
2023/01/28 01:00:49;;;;;;;11.27;6.45;;;2.40;99.90;;;;;;5018573;28;20037;-80
2023/01/28 01:03:15;;;;;;;12.23;6.80;;;2.40;99.90;;;;;;5012340;28;20094;-80
2023/01/28 01:05:41;;;;;;;10.90;7.07;;;2.50;99.90;;;;;;5017506;28;20037;-80
2023/01/28 01:08:06;;;;;;;9.45;6.47;;;2.40;99.90;;;;;;5032034;28;20064;-80
2023/01/28 01:10:33;;;;;;;9.95;7.20;;;2.40;99.90;;;;;;5039357;28;20196;-80
2023/01/28 01:12:59;;;;;;;10.52;7.20;;;2.50;99.90;;;;;;5014833;28;20033;-80
2023/01/28 01:15:25;;;;;;;10.20;7.30;;;2.50;99.90;;;;;;5032520;28;20447;-80
2023/01/28 01:17:52;;;;;;;11.15;7.97;;;2.40;99.90;;;;;;5014844;28;20076;-80
2023/01/28 01:20:23;;;;;;;10.13;7.68;;;2.50;99.90;;;;;;5037235;28;20120;-80
2023/01/28 01:22:49;;;;;;;11.77;8.00;;;2.50;99.90;;;;;;5013737;28;20446;-80
2023/01/28 01:25:16;;;;;;;11.73;8.85;;;2.50;99.90;;;;;;5016968;28;20053;-81
2023/01/28 01:27:42;;;;;;;12.93;9.23;;;2.40;99.90;;;;;;5021684;28;20037;-80
2023/01/28 01:30:09;;;;;;;12.90;8.80;;;2.40;99.90;;;;;;5035706;28;20489;-80
2023/01/28 01:32:35;;;;;;;11.60;8.30;;;2.40;99.90;;;;;;5015232;28;20045;-80
2023/01/28 01:35:02;;;;;;;11.50;8.80;;;2.40;99.90;;;;;;5045181;28;20044;-80
2023/01/28 01:37:28;;;;;;;11.70;8.70;;;2.40;99.90;;;;;;5034203;28;20039;-80
2023/01/28 01:39:54;;;;;;;12.40;9.02;;;2.40;99.90;;;;;;5036160;28;20037;-80
2023/01/28 01:42:19;;;;;;;14.20;9.50;;;2.40;99.90;;;;;;5018816;28;20503;-80
2023/01/28 01:44:59;;;;;;;12.75;8.68;;;2.40;99.90;;;;;;5017040;28;20045;-81
2023/01/28 01:47:33;;;;;;;13.43;8.75;;;2.40;99.90;;;;;;5019640;28;20036;-80
2023/01/28 01:50:03;;;;;;;12.63;8.95;;;2.40;99.90;;;;;;5046299;28;20099;-80
2023/01/28 01:52:33;;;;;;;12.73;8.73;;;2.40;99.90;;;;;;5019042;28;20045;-81
2023/01/28 01:55:03;;;;;;;11.43;8.32;;;2.40;99.90;;;;;;5018852;28;20662;-81
2023/01/28 01:57:32;;;;;;;13.55;8.30;;;2.40;99.90;;;;;;5020615;28;20056;-80
2023/01/28 02:00:05;;;;;;;11.82;8.38;;;2.30;99.90;;;;;;5016779;28;20092;-80
2023/01/28 02:02:42;;;;;;;11.65;8.35;;;2.30;99.90;;;;;;5021339;28;20049;-80
2023/01/28 02:05:11;;;;;;;12.60;8.38;;;2.30;99.90;;;;;;5024171;28;20491;-80
2023/01/28 02:07:37;;;;;;;11.98;8.88;;;2.40;99.90;;;;;;5019476;28;20049;-80
2023/01/28 02:10:04;;;;;;;11.90;8.32;;;2.30;99.90;;;;;;5017966;28;20040;-80
2023/01/28 02:12:36;;;;;;;12.68;8.10;;;2.30;99.90;;;;;;5033360;28;20091;-80
2023/01/28 02:15:06;;;;;;;11.10;7.50;;;2.30;99.90;;;;;;5037563;28;20033;-80
2023/01/28 02:17:33;;;;;;;12.98;9.00;;;2.40;99.90;;;;;;5034577;28;20512;-80
2023/01/28 02:20:06;;;;;;;11.65;7.70;;;2.40;99.90;;;;;;5019367;28;20400;-80
2023/01/28 02:22:59;;;;;;;11.57;8.00;;;2.30;99.90;;;;;;5037273;28;20197;-80
2023/01/28 02:25:55;;;;;;;10.82;7.85;;;2.30;99.90;;;;;;5030502;28;20087;-80
2023/01/28 02:28:33;;;;;;;12.02;8.10;;;2.30;99.90;;;;;;5032710;28;20041;-80
2023/01/28 02:31:21;;;;;;;12.10;7.82;;;2.30;99.90;;;;;;5034611;28;20610;-80
2023/01/28 02:34:02;;;;;;;11.15;7.90;;;2.30;99.90;;;;;;5034257;28;20049;-80
2023/01/28 02:36:37;;;;;;;11.40;8.13;;;2.30;99.90;;;;;;5013650;28;20144;-80
2023/01/28 02:39:12;;;;;;;10.07;7.30;;;2.30;99.90;;;;;;5015251;28;20049;-80
2023/01/28 02:41:45;;;;;;;11.80;8.48;;;2.30;99.90;;;;;;5035643;28;20753;-80
2023/01/28 02:44:11;;;;;;;11.88;9.02;;;2.30;99.90;;;;;;5030007;28;20040;-80
2023/01/28 02:49:35;;;;;;;12.25;8.10;;;2.30;99.90;;;;;;5034030;28;20041;-80
2023/01/28 02:52:07;;;;;;;11.43;8.18;;;2.30;99.90;;;;;;5031925;28;20056;-80
2023/01/28 02:55:02;;;;;;;12.43;8.65;;;2.30;99.90;;;;;;5013491;28;20037;-80
2023/01/28 02:57:31;;;;;;;11.15;7.90;;;2.30;99.90;;;;;;5017938;28;20055;-80
2023/01/28 03:00:21;;;;;;;11.35;7.78;;;2.30;99.90;;;;;;5021963;28;20053;-80
2023/01/28 03:03:02;;;;;;;11.18;8.13;;;2.30;99.90;;;;;;4997550;28;20056;-80
2023/01/28 03:05:35;;;;;;;11.70;7.70;;;2.30;99.90;;;;;;5014581;28;20128;-79
2023/01/28 03:09:21;;;;;;;11.90;7.50;;;2.30;99.90;;;;;;5038047;28;20060;-80
2023/01/28 03:38:47;;;;;;;11.97;7.70;;;2.20;99.90;;;;;;5030563;28;20004;-80
2023/01/28 03:41:21;;;;;;;14.02;8.10;;;2.20;99.90;;;;;;5039973;28;20330;-80
2023/01/28 03:43:47;;;;;;;12.75;8.40;;;2.20;99.90;;;;;;5013457;28;20056;-80
2023/01/28 03:46:13;;;;;;;11.70;8.50;;;2.20;99.90;;;;;;5028762;28;20834;-81
2023/01/28 03:48:39;;;;;;;11.85;8.40;;;2.20;99.90;;;;;;5020179;28;20124;-80
2023/01/28 03:51:05;;;;;;;13.27;9.00;;;2.30;99.90;;;;;;5016109;28;20413;-80
2023/01/28 03:53:30;;;;;;;12.15;8.40;;;2.20;99.90;;;;;;5015927;28;20040;-80
2023/01/28 03:55:56;;;;;;;13.32;8.52;;;2.20;99.90;;;;;;5033309;28;20037;-80
2023/01/28 03:58:25;;;;;;;12.05;8.63;;;2.20;99.90;;;;;;5035087;28;20041;-80
2023/01/28 04:00:52;;;;;;;14.60;8.90;;;2.30;99.90;;;;;;5032696;28;20495;-80
2023/01/28 04:03:19;;;;;;;14.82;9.40;;;2.20;99.90;;;;;;5029367;28;20803;-80
2023/01/28 04:05:56;;;;;;;13.20;9.18;;;2.20;99.90;;;;;;5018280;28;20139;-80
2023/01/28 04:08:23;;;;;;;13.60;9.00;;;2.20;99.90;;;;;;5032120;28;20096;-81
2023/01/28 04:10:49;;;;;;;14.88;9.13;;;2.20;99.90;;;;;;5017347;28;20033;-79
2023/01/28 04:13:15;;;;;;;14.40;9.07;;;2.20;99.90;;;;;;5042007;28;20404;-81
2023/01/28 04:15:44;;;;;;;14.18;9.55;;;2.20;99.90;;;;;;5016802;28;20029;-80
2023/01/28 04:18:11;;;;;;;14.35;9.43;;;2.20;99.90;;;;;;5021194;28;20376;-80
2023/01/28 04:20:38;;;;;;;13.75;9.38;;;2.20;99.90;;;;;;5028321;28;20516;-80
2023/01/28 04:23:04;;;;;;;14.15;9.60;;;2.20;99.90;;;;;;5016704;28;20038;-81
2023/01/28 04:25:30;;;;;;;16.08;9.98;;;2.20;99.90;;;;;;5031945;28;20103;-80
2023/01/28 04:27:56;;;;;;;14.32;10.18;;;2.20;99.90;;;;;;5030391;28;20458;-80
2023/01/28 04:30:22;;;;;;;14.10;9.63;;;2.20;99.90;;;;;;5015702;28;20052;-80
2023/01/28 04:32:51;;;;;;;14.13;9.77;;;2.10;99.90;;;;;;5031694;28;20444;-81
2023/01/28 04:35:18;;;;;;;14.98;9.75;;;2.10;99.90;;;;;;5018062;28;20048;-80
2023/01/28 04:37:44;;;;;;;15.15;9.98;;;2.10;99.90;;;;;;5034540;28;20060;-80
2023/01/28 04:40:11;;;;;;;14.57;10.20;;;2.10;99.90;;;;;;5017460;28;20041;-80
2023/01/28 04:42:38;;;;;;;14.00;9.85;;;2.10;99.90;;;;;;5011490;28;20077;-81
2023/01/28 04:45:04;;;;;;;14.25;10.00;;;2.00;99.90;;;;;;5018567;28;20431;-80
2023/01/28 04:47:30;;;;;;;14.82;9.88;;;2.00;99.90;;;;;;5034535;28;20141;-80
2023/01/28 04:49:55;;;;;;;14.65;9.70;;;2.10;99.90;;;;;;5016192;28;20120;-80
2023/01/28 04:52:21;;;;;;;13.32;9.40;;;2.00;99.90;;;;;;5019592;28;20042;-81
2023/01/28 04:54:46;;;;;;;14.13;9.07;;;2.00;99.90;;;;;;5015975;28;20064;-80
2023/01/28 04:57:12;;;;;;;15.00;9.77;;;2.10;99.90;;;;;;5012188;28;20034;-80
2023/01/28 04:59:38;;;;;;;16.23;9.50;;;2.00;99.90;;;;;;5014682;28;20041;-80
2023/01/28 05:02:03;;;;;;;13.82;9.60;;;2.10;99.90;;;;;;5040892;28;20039;-80
2023/01/28 05:04:29;;;;;;;16.17;10.63;;;2.10;99.90;;;;;;5023227;28;20432;-80
2023/01/28 05:06:54;;;;;;;13.52;9.40;;;2.00;99.90;;;;;;5033343;28;20136;-80
2023/01/28 05:09:20;;;;;;;14.65;10.02;;;2.00;99.90;;;;;;5019381;28;20221;-81
2023/01/28 05:11:46;;;;;;;14.35;9.45;;;2.00;99.90;;;;;;5033547;28;20128;-80
2023/01/28 05:14:11;;;;;;;13.15;8.98;;;2.00;99.90;;;;;;5035925;28;20059;-81
2023/01/28 05:16:37;;;;;;;15.95;9.98;;;2.00;99.90;;;;;;5041857;28;20041;-80
2023/01/28 05:19:03;;;;;;;14.50;9.55;;;2.00;99.90;;;;;;5022132;28;20037;-80
2023/01/28 05:21:28;;;;;;;14.52;9.05;;;2.00;99.90;;;;;;5031922;28;20116;-80
2023/01/28 05:23:54;;;;;;;15.10;9.52;;;2.00;99.90;;;;;;5020362;28;20049;-80
2023/01/28 05:26:20;;;;;;;14.48;8.90;;;2.00;99.90;;;;;;5033217;28;20044;-81
2023/01/28 05:28:45;;;;;;;16.27;9.88;;;2.00;99.90;;;;;;5016179;28;20042;-80
2023/01/28 05:31:11;;;;;;;14.38;9.50;;;2.00;99.90;;;;;;5021107;28;20125;-80
2023/01/28 05:33:37;;;;;;;14.73;10.05;;;2.00;99.90;;;;;;5016612;28;20079;-81
2023/01/28 05:36:03;;;;;;;14.35;8.50;;;2.00;99.90;;;;;;5014883;28;20041;-80
2023/01/28 05:38:29;;;;;;;15.02;10.82;;;2.00;99.90;;;;;;5034615;28;20041;-80
2023/01/28 05:40:54;;;;;;;15.35;9.98;;;2.00;99.90;;;;;;5039435;28;20095;-80
2023/01/28 05:43:20;;;;;;;14.00;8.80;;;2.00;99.90;;;;;;5031392;28;20520;-80
2023/01/28 05:45:46;;;;;;;13.02;8.88;;;2.00;99.90;;;;;;5017912;28;20064;-80
2023/01/28 05:48:13;;;;;;;13.43;9.48;;;2.00;99.90;;;;;;5045262;28;20044;-80
2023/01/28 05:50:39;;;;;;;13.35;8.75;;;2.00;99.90;;;;;;5019226;28;20505;-80
2023/01/28 05:53:08;;;;;;;14.32;8.82;;;2.00;99.90;;;;;;5016388;28;20524;-80
2023/01/28 05:55:34;;;;;;;12.95;8.80;;;2.00;99.90;;;;;;5038680;28;20033;-80
2023/01/28 05:58:00;;;;;;;13.93;8.77;;;2.00;99.90;;;;;;5017213;28;20095;-80
2023/01/28 06:00:26;;;;;;;13.73;9.20;;;2.00;99.90;;;;;;5017623;28;20041;-80
2023/01/28 06:02:52;;;;;;;14.02;9.50;;;2.00;99.90;;;;;;5034571;28;20037;-80
2023/01/28 06:05:18;;;;;;;12.00;8.35;;;2.00;99.90;;;;;;5016568;28;20550;-80
2023/01/28 06:07:44;;;;;;;12.82;8.65;;;2.00;99.90;;;;;;5017424;28;20056;-80
2023/01/28 06:10:10;;;;;;;11.80;7.82;;;2.00;99.90;;;;;;5019427;28;20515;-80
2023/01/28 06:12:36;;;;;;;13.48;9.38;;;2.00;99.90;;;;;;5035559;28;20036;-80
2023/01/28 06:15:01;;;;;;;13.18;8.52;;;2.00;99.90;;;;;;5023669;28;20956;-80
2023/01/28 06:17:27;;;;;;;14.10;8.95;;;2.00;99.90;;;;;;5018787;28;20136;-80
2023/01/28 06:19:53;;;;;;;16.02;9.43;;;2.00;99.90;;;;;;5034290;28;20083;-80
2023/01/28 06:22:18;;;;;;;13.25;8.48;;;2.00;99.90;;;;;;5016090;28;20693;-80
2023/01/28 06:24:44;;;;;;;12.60;8.27;;;2.00;99.90;;;;;;5016281;28;20044;-80
2023/01/28 06:27:09;;;;;;;13.35;8.80;;;2.00;99.90;;;;;;5017539;28;20092;-80
2023/01/28 06:29:35;;;;;;;12.43;8.20;;;2.00;99.90;;;;;;5014284;28;20045;-80
2023/01/28 06:32:00;;;;;;;13.23;8.25;;;2.00;99.90;;;;;;5033058;28;20796;-80
2023/01/28 06:34:26;;;;;;;11.90;8.40;;;2.00;99.90;;;;;;5034385;28;20493;-80
2023/01/28 06:36:52;;;;;;;12.68;8.15;;;2.00;99.90;;;;;;5018115;28;20047;-80
2023/01/28 06:39:20;;;;;;;14.40;8.80;;;2.10;99.90;;;;;;5036861;28;20493;-80
2023/01/28 06:41:46;;;;;;;13.40;7.97;;;2.10;99.90;;;;;;5032641;28;20044;-80
2023/01/28 06:44:12;;;;;;;12.00;8.60;;;2.00;99.90;;;;;;5021106;28;20041;-80
2023/01/28 06:46:37;;;;;;;12.35;8.50;;;2.00;99.90;;;;;;5017406;28;20050;-80
2023/01/28 06:49:03;;;;;;;13.20;8.18;;;2.00;99.90;;;;;;5038255;28;20140;-80
2023/01/28 06:51:28;;;;;;;12.68;8.20;;;2.00;99.90;;;;;;5032127;28;20037;-80
2023/01/28 06:53:54;;;;;;;12.25;8.18;;;2.00;99.90;;;;;;5017382;28;20130;-80
2023/01/28 06:56:20;;;;;;;11.98;8.10;;;2.00;99.90;;;;;;5022340;28;20476;-80
2023/01/28 06:58:45;;;;;;;12.68;8.10;;;2.00;99.90;;;;;;5018195;28;20128;-80
2023/01/28 07:01:11;;;;;;;12.23;8.65;;;2.00;99.90;;;;;;5033663;28;20125;-81
2023/01/28 07:03:36;;;;;;;11.60;7.93;;;2.00;99.90;;;;;;5027687;28;20045;-80
2023/01/28 07:06:02;;;;;;;12.43;8.10;;;1.90;99.90;;;;;;5012990;28;20125;-80
2023/01/28 07:08:28;;;;;;;12.32;8.27;;;1.90;99.90;;;;;;5035484;28;20501;-80
2023/01/28 07:10:53;;;;;;;12.07;7.80;;;1.90;99.90;;;;;;5035800;28;20531;-80
2023/01/28 07:13:19;;;;;;;11.88;7.65;;;1.90;99.90;;;;;;5022053;28;20103;-81
2023/01/28 07:15:44;;;;;;;12.98;8.80;;;1.90;99.90;;;;;;5026474;28;20495;-80
2023/01/28 07:18:10;;;;;;;15.10;8.27;;;1.90;99.90;;;;;;5021863;28;20069;-80
2023/01/28 07:20:36;;;;;;;12.93;8.30;;;1.90;99.90;;;;;;5012822;28;20046;-81
2023/01/28 07:23:02;;;;;;;13.07;8.48;;;1.90;99.90;;;;;;5015700;28;20456;-80
2023/01/28 07:25:27;;;;;;;11.68;8.45;;;1.80;99.90;;;;;;5034664;28;20485;-80
2023/01/28 07:27:53;;;;;;;12.70;7.50;;;1.70;99.90;;;;;;5018857;28;20041;-80
2023/01/28 07:30:20;;;;;;;12.68;8.45;;;1.60;99.90;;;;;;5016958;28;20037;-80
2023/01/28 07:32:46;;;;;;;13.02;8.70;;;1.50;99.90;;;;;;5012149;28;20043;-80
2023/01/28 07:35:12;;;;;;;12.50;8.02;;;1.40;99.90;;;;;;5016843;28;20525;-80
2023/01/28 07:37:38;;;;;;;12.32;8.75;;;1.40;99.90;;;;;;5018433;28;20127;-80
2023/01/28 07:40:05;;;;;;;13.63;8.48;;;1.20;99.90;;;;;;5017203;28;20037;-80
2023/01/28 07:42:31;;;;;;;13.35;8.30;;;1.20;99.90;;;;;;5039889;28;20037;-80
2023/01/28 07:44:57;;;;;;;14.15;8.65;;;1.10;99.90;;;;;;5033258;28;20425;-80
2023/01/28 07:47:23;;;;;;;13.15;8.38;;;1.10;99.90;;;;;;5032857;28;20041;-80
2023/01/28 07:49:48;;;;;;;15.55;8.80;;;1.00;99.90;;;;;;5018097;28;20120;-80
2023/01/28 07:52:14;;;;;;;13.07;8.98;;;0.90;99.90;;;;;;5020923;28;20041;-80
2023/01/28 07:54:39;;;;;;;13.93;8.90;;;0.90;99.90;;;;;;5015055;28;20064;-80
2023/01/28 07:57:08;;;;;;;15.85;9.02;;;0.90;99.90;;;;;;5030502;28;20123;-80
2023/01/28 07:59:34;;;;;;;13.63;8.38;;;0.80;99.90;;;;;;5032018;28;20052;-80
2023/01/28 08:02:00;;;;;;;15.23;8.90;;;0.90;99.90;;;;;;5017396;28;20389;-80
2023/01/28 08:04:26;;;;;;;14.93;8.95;;;0.80;99.90;;;;;;5018758;28;20124;-81
2023/01/28 08:06:51;;;;;;;15.68;9.55;;;0.80;99.90;;;;;;5013599;28;20045;-80
2023/01/28 08:09:17;;;;;;;16.02;9.38;;;0.80;99.90;;;;;;5014182;28;20048;-80
2023/01/28 08:11:43;;;;;;;16.08;10.50;;;0.90;99.90;;;;;;5019156;28;20045;-80
2023/01/28 08:14:10;;;;;;;15.95;9.48;;;0.90;99.90;;;;;;5032374;28;20045;-80
2023/01/28 08:16:36;;;;;;;16.75;10.05;;;0.90;99.90;;;;;;5028815;28;20041;-80
2023/01/28 08:19:01;;;;;;;15.45;9.50;;;1.00;99.90;;;;;;5035703;28;20551;-80
2023/01/28 08:21:27;;;;;;;15.57;9.32;;;1.10;99.90;;;;;;5013596;28;20040;-80
2023/01/28 08:23:53;;;;;;;16.33;9.90;;;1.10;99.90;;;;;;5037212;28;20052;-80
2023/01/28 08:26:19;;;;;;;14.85;8.95;;;1.30;99.90;;;;;;5030205;28;20041;-81
2023/01/28 08:28:45;;;;;;;14.57;9.38;;;1.40;99.90;;;;;;5018515;28;20045;-80
2023/01/28 08:31:10;;;;;;;15.70;9.20;;;1.50;99.90;;;;;;5030316;28;20045;-80
2023/01/28 08:33:36;;;;;;;14.15;9.05;;;1.60;99.90;;;;;;5018330;28;20049;-80
2023/01/28 08:36:03;;;;;;;14.68;9.65;;;1.80;99.90;;;;;;5028592;28;20774;-80
2023/01/28 08:38:29;;;;;;;13.98;8.93;;;1.90;99.90;;;;;;5019042;28;20110;-80
2023/01/28 08:40:58;;;;;;;15.43;9.38;;;2.00;99.90;;;;;;5020270;28;20041;-80
2023/01/28 08:43:24;;;;;;;14.07;8.32;;;2.00;99.90;;;;;;5035020;28;20037;-80
2023/01/28 08:45:50;;;;;;;15.02;9.20;;;1.90;99.90;;;;;;5013358;28;20052;-81
2023/01/28 08:48:17;;;;;;;14.57;8.85;;;1.90;99.90;;;;;;5019937;28;20045;-80
2023/01/28 08:50:44;;;;;;;14.10;8.85;;;2.00;99.90;;;;;;5021461;28;20123;-80
2023/01/28 08:53:16;;;;;;;14.20;8.95;;;2.30;99.90;;;;;;5018642;28;20103;-80
2023/01/28 08:55:42;;;;;;;16.92;9.13;;;2.60;99.90;;;;;;5019837;28;20071;-80
2023/01/28 08:58:13;;;;;;;14.35;8.80;;;2.80;99.90;;;;;;5029951;28;20052;-80
2023/01/28 09:00:39;;;;;;;14.65;8.65;;;3.00;99.90;;;;;;5028654;28;20041;-81
2023/01/28 09:03:05;;;;;;;12.40;8.13;;;3.20;99.90;;;;;;5028051;28;20133;-80
2023/01/28 09:05:32;;;;;;;13.57;8.75;;;3.20;99.90;;;;;;5031236;28;20034;-80
2023/01/28 09:08:03;;;;;;;11.52;7.78;;;3.40;99.90;;;;;;5026917;28;20374;-81
2023/01/28 09:10:29;;;;;;;13.15;7.88;;;3.40;99.90;;;;;;5030323;28;20037;-80
2023/01/28 09:12:55;;;;;;;12.88;8.27;;;3.40;99.90;;;;;;5015245;28;20048;-80
2023/01/28 09:15:20;;;;;;;13.38;8.25;;;3.40;99.90;;;;;;5013946;28;20124;-80
2023/01/28 09:17:46;;;;;;;11.30;7.55;;;3.40;99.90;;;;;;5031225;28;20501;-80
2023/01/28 09:20:11;;;;;;;12.15;7.90;;;3.40;99.90;;;;;;5012866;28;20049;-81
2023/01/28 09:22:37;;;;;;;12.60;7.55;;;3.40;99.90;;;;;;5015047;28;20041;-80
2023/01/28 09:25:03;;;;;;;11.57;7.50;;;3.40;99.90;;;;;;5013451;28;20041;-80
2023/01/28 09:27:29;;;;;;;11.40;7.30;;;3.40;99.90;;;;;;5018217;28;20106;-80
2023/01/28 09:29:54;;;;;;;11.25;7.68;;;3.40;99.90;;;;;;5031825;28;20045;-80
2023/01/28 09:32:20;;;;;;;10.80;7.60;;;3.40;99.90;;;;;;5013607;28;20124;-80
2023/01/28 09:34:46;;;;;;;13.07;7.60;;;3.50;99.90;;;;;;5018420;28;20432;-80
2023/01/28 09:37:11;;;;;;;12.10;7.95;;;3.60;99.90;;;;;;5029815;28;20041;-80
2023/01/28 09:39:37;;;;;;;11.57;7.68;;;3.70;99.90;;;;;;5016936;28;20041;-80
2023/01/28 09:42:16;;;;;;;11.15;7.53;;;3.80;99.90;;;;;;5013353;28;20045;-80
2023/01/28 09:44:53;;;;;;;11.85;8.18;;;3.90;99.90;;;;;;5027836;28;20069;-80
2023/01/28 09:47:40;;;;;;;11.52;7.88;;;3.90;99.90;;;;;;5019161;28;20486;-80
2023/01/28 09:50:11;;;;;;;11.13;7.85;;;3.90;99.90;;;;;;5023314;28;20055;-80
2023/01/28 09:52:40;;;;;;;11.88;7.65;;;3.90;99.90;;;;;;5035237;28;20049;-80
2023/01/28 09:55:31;;;;;;;11.95;7.43;;;3.90;99.90;;;;;;5019768;28;20068;-80
2023/01/28 09:57:57;;;;;;;11.63;7.25;;;3.90;99.90;;;;;;5012331;28;20057;-80
2023/01/28 10:00:51;;;;;;;11.18;7.28;;;4.00;99.90;;;;;;5033475;28;20473;-80
2023/01/28 10:03:38;;;;;;;12.77;8.30;;;4.10;99.90;;;;;;5016197;28;20041;-80
2023/01/28 10:06:35;;;;;;;13.80;8.25;;;4.20;99.90;;;;;;5034337;28;20048;-79
2023/01/28 10:09:25;;;;;;;13.38;8.43;;;4.30;99.90;;;;;;5017539;28;20132;-80
2023/01/28 10:12:16;;;;;;;11.45;7.18;;;4.80;99.90;;;;;;5038839;28;20090;-80
2023/01/28 10:15:18;;;;;;;12.70;8.07;;;5.00;99.90;;;;;;5030821;28;20043;-79
2023/01/28 10:17:48;;;;;;;12.32;8.25;;;5.00;99.90;;;;;;5032571;28;20040;-80
2023/01/28 10:20:34;;;;;;;14.05;8.52;;;5.00;99.90;;;;;;5015061;28;20038;-80
2023/01/28 10:23:11;;;;;;;11.65;8.07;;;5.10;99.90;;;;;;5015914;28;20037;-79
2023/01/28 10:25:40;;;;;;;12.25;8.48;;;5.20;99.90;;;;;;5017750;28;20766;-80
2023/01/28 10:28:17;;;;;;;11.95;8.13;;;5.40;99.90;;;;;;5016231;28;20037;-80
2023/01/28 10:30:45;;;;;;;12.60;8.88;;;5.70;99.90;;;;;;5019086;28;20068;-79
2023/01/28 10:33:22;;;;;;;11.25;7.95;;;5.90;99.90;;;;;;5016278;28;20045;-79
2023/01/28 10:35:48;;;;;;;12.52;8.15;;;6.00;99.90;;;;;;5016366;28;20446;-79
2023/01/28 10:38:19;;;;;;;12.48;7.43;;;6.00;99.90;;;;;;5016274;28;20123;-79
2023/01/28 10:40:47;;;;;;;12.27;7.63;;;5.80;99.90;;;;;;5033424;28;20037;-79
2023/01/28 10:43:16;;;;;;;11.95;7.78;;;5.70;99.90;;;;;;5035395;28;20118;-79
2023/01/28 10:46:03;;;;;;;10.43;7.15;;;5.50;99.90;;;;;;5017911;28;20096;-79
2023/01/28 10:48:34;;;;;;;10.43;6.90;;;5.30;99.90;;;;;;5017850;28;20128;-80
2023/01/28 10:51:03;;;;;;;13.80;8.07;;;5.40;99.90;;;;;;5033187;28;20052;-80
2023/01/28 10:53:47;;;;;;;12.18;8.02;;;5.60;99.90;;;;;;5031101;28;20120;-79
2023/01/28 10:56:16;;;;;;;11.30;7.07;;;5.80;99.90;;;;;;5032281;28;20847;-79
2023/01/28 10:59:06;;;;;;;12.07;7.60;;;5.80;99.90;;;;;;5031943;28;20095;-79
2023/01/28 11:01:40;;;;;;;10.75;7.47;;;5.80;99.90;;;;;;5029912;28;20087;-79
2023/01/28 11:04:15;;;;;;;11.95;7.35;;;6.00;99.90;;;;;;5012594;28;20037;-79
2023/01/28 11:06:41;;;;;;;11.80;7.05;;;6.00;99.90;;;;;;5012625;28;20034;-79
2023/01/28 11:09:20;;;;;;;11.00;7.63;;;6.10;99.90;;;;;;5031001;28;20139;-79
2023/01/28 11:11:46;;;;;;;12.30;7.65;;;6.10;99.90;;;;;;5036095;28;20416;-80
2023/01/28 11:14:20;;;;;;;11.82;7.65;;;6.10;99.90;;;;;;5020457;28;20041;-80
2023/01/28 11:16:46;;;;;;;11.15;7.22;;;5.90;99.90;;;;;;5015175;28;20041;-80
2023/01/28 11:19:11;;;;;;;12.43;8.02;;;5.90;99.90;;;;;;5022567;28;20043;-79
2023/01/28 11:21:37;;;;;;;12.70;7.25;;;5.80;99.90;;;;;;5031933;28;20622;-79
2023/01/28 11:24:12;;;;;;;12.23;7.45;;;5.70;99.90;;;;;;5013545;28;20041;-79
2023/01/28 11:26:43;;;;;;;13.07;7.40;;;5.60;99.90;;;;;;5015352;28;20029;-79
2023/01/28 11:29:29;;;;;;;13.10;8.18;;;5.50;99.90;;;;;;5012226;28;20069;-79
2023/01/28 11:31:55;;;;;;;11.07;7.47;;;5.50;99.90;;;;;;5014529;28;20059;-79
2023/01/28 11:34:26;;;;;;;13.30;8.77;;;5.40;99.90;;;;;;5034187;28;20437;-80
2023/01/28 11:36:59;;;;;;;12.30;8.23;;;5.40;99.90;;;;;;5019481;28;20125;-79
2023/01/28 11:39:28;;;;;;;12.30;7.57;;;5.40;99.90;;;;;;5034825;28;20041;-79
2023/01/28 11:42:01;;;;;;;12.35;7.40;;;5.40;99.90;;;;;;5018752;28;20097;-79
2023/01/28 11:44:29;;;;;;;13.07;8.25;;;5.40;99.90;;;;;;5014218;28;20416;-79
2023/01/28 11:47:13;;;;;;;13.77;8.15;;;5.50;99.90;;;;;;5016915;28;20056;-79
2023/01/28 11:49:58;;;;;;;14.68;8.98;;;5.50;99.90;;;;;;5013012;28;20054;-79
2023/01/28 11:52:33;;;;;;;12.13;8.07;;;5.50;99.90;;;;;;5022209;28;20044;-79
2023/01/28 11:55:32;;;;;;;12.75;8.55;;;5.60;99.90;;;;;;5036358;28;20041;-79
2023/01/28 11:58:21;;;;;;;12.60;8.40;;;5.70;99.90;;;;;;5023326;28;20072;-79
2023/01/28 12:01:01;;;;;;;14.43;9.02;;;5.70;99.90;;;;;;5034344;28;20096;-79
2023/01/28 12:04:04;;;;;;;13.32;8.43;;;5.70;99.90;;;;;;5015842;28;20443;-79
2023/01/28 12:06:54;;;;;;;13.77;8.73;;;5.70;99.90;;;;;;5031354;28;20038;-79
2023/01/28 12:09:41;;;;;;;13.98;8.93;;;5.70;99.90;;;;;;5029459;28;20041;-79
2023/01/28 12:12:44;;;;;;;13.75;8.25;;;5.70;99.90;;;;;;5018169;28;20397;-79
2023/01/28 12:15:41;;;;;;;12.73;8.60;;;5.60;99.90;;;;;;4992593;28;20064;-79
2023/01/28 12:18:35;;;;;;;14.38;7.90;;;5.50;99.90;;;;;;5013212;28;20033;-79
2023/01/28 12:21:09;;;;;;;14.77;8.02;;;5.40;99.90;;;;;;5013745;28;20064;-79
2023/01/28 12:24:13;;;;;;;13.40;7.90;;;5.20;99.90;;;;;;5014657;28;20400;-79
2023/01/28 12:26:48;;;;;;;14.65;8.68;;;5.00;99.90;;;;;;5010579;28;20124;-79
2023/01/28 12:29:46;;;;;;;13.70;7.95;;;5.20;99.90;;;;;;5013945;28;20578;-79
2023/01/28 12:32:27;;;;;;;14.25;8.07;;;5.50;99.90;;;;;;5013461;28;20106;-79
2023/01/28 12:35:14;;;;;;;12.70;7.68;;;5.70;99.90;;;;;;5036743;28;20037;-79
2023/01/28 12:38:13;;;;;;;12.80;7.80;;;5.80;99.90;;;;;;5031580;28;20048;-79
2023/01/28 12:40:55;;;;;;;11.05;7.20;;;5.90;99.90;;;;;;5030814;28;20041;-79
2023/01/28 12:43:50;;;;;;;12.45;7.53;;;6.10;99.90;;;;;;5012640;28;20397;-79
2023/01/28 12:46:32;;;;;;;12.57;7.85;;;6.20;99.90;;;;;;5009650;28;20111;-79
2023/01/28 12:49:20;;;;;;;12.77;7.50;;;6.20;99.90;;;;;;5014005;28;20036;-79
2023/01/28 12:51:50;;;;;;;11.18;7.18;;;6.00;99.90;;;;;;5021359;28;20386;-79
2023/01/28 12:54:21;;;;;;;11.93;7.43;;;6.00;99.90;;;;;;5016454;28;20046;-79
2023/01/28 12:56:52;;;;;;;12.85;7.68;;;5.90;99.90;;;;;;5020508;28;20045;-79
2023/01/28 12:59:30;;;;;;;14.55;7.85;;;5.90;99.90;;;;;;5026824;28;20087;-79
2023/01/28 13:02:05;;;;;;;13.88;8.05;;;5.80;99.90;;;;;;5036808;28;20567;-79
2023/01/28 13:04:54;;;;;;;12.98;8.10;;;5.70;99.90;;;;;;5019642;28;20037;-79
2023/01/28 13:07:19;;;;;;;12.77;7.72;;;5.80;99.90;;;;;;5015410;28;20045;-79
2023/01/28 13:09:52;;;;;;;12.02;7.55;;;5.80;99.90;;;;;;5030777;28;20045;-79
2023/01/28 13:12:20;;;;;;;12.02;7.22;;;5.80;99.90;;;;;;5036477;28;20122;-78
2023/01/28 13:14:47;;;;;;;12.25;7.10;;;5.70;99.90;;;;;;5018455;28;20453;-78
2023/01/28 13:17:27;;;;;;;13.23;8.18;;;5.60;99.90;;;;;;5024094;28;20099;-78
2023/01/28 13:19:52;;;;;;;12.70;7.60;;;5.40;99.90;;;;;;5037832;28;20050;-79
2023/01/28 13:22:36;;;;;;;13.93;8.57;;;5.40;99.90;;;;;;5015540;28;20405;-79
2023/01/28 13:25:12;;;;;;;14.90;7.97;;;5.50;99.90;;;;;;5025143;28;20516;-79
2023/01/28 13:27:38;;;;;;;14.13;8.68;;;5.50;99.90;;;;;;5021651;28;20051;-79
2023/01/28 13:30:45;;;;;;;13.10;7.95;;;5.50;99.90;;;;;;5036461;28;20045;-79
2023/01/28 13:33:52;;;;;;;12.60;7.15;;;5.60;99.90;;;;;;5035422;28;20140;-80
2023/01/28 13:36:27;;;;;;;11.85;7.50;;;5.90;99.90;;;;;;4963325;28;20128;-79